sensor_id;sensor_type;location;lat;lon;timestamp;temperature;humidity
59148;DHT22;44930;52.878;6.168;2024-01-30T00:01:51;6.90;99.90
59148;DHT22;44930;52.878;6.168;2024-01-30T00:04:16;7.20;99.90
59148;DHT22;44930;52.878;6.168;2024-01-30T00:06:43;7.10;99.90
59148;DHT22;44930;52.878;6.168;2024-01-30T00:09:08;7.10;99.90
59148;DHT22;44930;52.878;6.168;2024-01-30T00:18:55;7.00;99.90
59148;DHT22;44930;52.878;6.168;2024-01-30T00:21:21;7.10;99.90
59148;DHT22;44930;52.878;6.168;2024-01-30T00:28:40;7.00;99.90
59148;DHT22;44930;52.878;6.168;2024-01-30T00:31:06;7.00;99.90
59148;DHT22;44930;52.878;6.168;2024-01-30T00:33:32;7.00;99.90
59148;DHT22;44930;52.878;6.168;2024-01-30T00:35:57;7.00;99.90
59148;DHT22;44930;52.878;6.168;2024-01-30T00:45:43;7.00;99.90
59148;DHT22;44930;52.878;6.168;2024-01-30T00:48:09;7.00;99.90
59148;DHT22;44930;52.878;6.168;2024-01-30T00:50:34;7.10;99.90
59148;DHT22;44930;52.878;6.168;2024-01-30T00:55:26;7.00;99.90
59148;DHT22;44930;52.878;6.168;2024-01-30T00:57:52;7.00;99.90
59148;DHT22;44930;52.878;6.168;2024-01-30T01:00:17;7.00;99.90
59148;DHT22;44930;52.878;6.168;2024-01-30T01:02:43;6.90;99.90
59148;DHT22;44930;52.878;6.168;2024-01-30T01:05:09;7.00;99.90
59148;DHT22;44930;52.878;6.168;2024-01-30T01:07:35;6.90;99.90
59148;DHT22;44930;52.878;6.168;2024-01-30T01:10:01;6.90;99.90
59148;DHT22;44930;52.878;6.168;2024-01-30T01:12:26;6.70;99.90
59148;DHT22;44930;52.878;6.168;2024-01-30T01:14:52;6.90;99.90
59148;DHT22;44930;52.878;6.168;2024-01-30T01:19:44;6.40;99.90
59148;DHT22;44930;52.878;6.168;2024-01-30T01:22:10;6.70;99.90
59148;DHT22;44930;52.878;6.168;2024-01-30T01:31:55;6.80;99.90
59148;DHT22;44930;52.878;6.168;2024-01-30T01:34:21;6.70;99.90
59148;DHT22;44930;52.878;6.168;2024-01-30T01:36:47;6.70;99.90
59148;DHT22;44930;52.878;6.168;2024-01-30T01:39:13;6.70;99.90
59148;DHT22;44930;52.878;6.168;2024-01-30T01:41:39;6.60;99.90
59148;DHT22;44930;52.878;6.168;2024-01-30T01:44:04;6.70;99.90
59148;DHT22;44930;52.878;6.168;2024-01-30T01:46:33;6.50;99.90
59148;DHT22;44930;52.878;6.168;2024-01-30T01:48:59;6.70;99.90
59148;DHT22;44930;52.878;6.168;2024-01-30T01:51:27;6.80;99.90
59148;DHT22;44930;52.878;6.168;2024-01-30T01:53:54;6.40;99.90
59148;DHT22;44930;52.878;6.168;2024-01-30T01:56:22;6.60;99.90
59148;DHT22;44930;52.878;6.168;2024-01-30T01:58:48;6.60;99.90
59148;DHT22;44930;52.878;6.168;2024-01-30T02:08:37;6.40;99.90
59148;DHT22;44930;52.878;6.168;2024-01-30T02:11:02;6.40;99.90
59148;DHT22;44930;52.878;6.168;2024-01-30T02:13:28;6.30;99.90
59148;DHT22;44930;52.878;6.168;2024-01-30T02:15:54;6.30;99.90
59148;DHT22;44930;52.878;6.168;2024-01-30T02:18:20;6.30;99.90
59148;DHT22;44930;52.878;6.168;2024-01-30T02:20:47;6.20;99.90
59148;DHT22;44930;52.878;6.168;2024-01-30T02:23:13;6.20;99.90
59148;DHT22;44930;52.878;6.168;2024-01-30T02:25:40;6.20;99.90
59148;DHT22;44930;52.878;6.168;2024-01-30T02:28:13;6.20;99.90
59148;DHT22;44930;52.878;6.168;2024-01-30T02:30:40;6.20;99.90
59148;DHT22;44930;52.878;6.168;2024-01-30T02:33:05;6.10;99.90
59148;DHT22;44930;52.878;6.168;2024-01-30T02:35:31;6.10;99.90
59148;DHT22;44930;52.878;6.168;2024-01-30T02:37:57;6.10;99.90
59148;DHT22;44930;52.878;6.168;2024-01-30T02:40:23;5.90;99.90
59148;DHT22;44930;52.878;6.168;2024-01-30T02:42:48;6.10;99.90
59148;DHT22;44930;52.878;6.168;2024-01-30T02:45:14;6.10;99.90
59148;DHT22;44930;52.878;6.168;2024-01-30T02:47:40;6.10;99.90
59148;DHT22;44930;52.878;6.168;2024-01-30T02:50:06;6.00;99.90
59148;DHT22;44930;52.878;6.168;2024-01-30T02:52:32;6.00;99.90
59148;DHT22;44930;52.878;6.168;2024-01-30T02:57:23;6.00;99.90
59148;DHT22;44930;52.878;6.168;2024-01-30T03:07:08;6.20;99.90
59148;DHT22;44930;52.878;6.168;2024-01-30T03:12:00;6.10;99.90
59148;DHT22;44930;52.878;6.168;2024-01-30T03:14:26;6.00;99.90
59148;DHT22;44930;52.878;6.168;2024-01-30T03:21:44;5.90;99.90
59148;DHT22;44930;52.878;6.168;2024-01-30T03:26:35;6.00;99.90
59148;DHT22;44930;52.878;6.168;2024-01-30T03:33:53;6.00;99.90
59148;DHT22;44930;52.878;6.168;2024-01-30T03:36:19;6.00;99.90
59148;DHT22;44930;52.878;6.168;2024-01-30T03:38:45;6.10;99.90
59148;DHT22;44930;52.878;6.168;2024-01-30T03:41:10;6.30;99.90
59148;DHT22;44930;52.878;6.168;2024-01-30T03:43:36;6.30;99.90
59148;DHT22;44930;52.878;6.168;2024-01-30T03:46:03;6.30;99.90
59148;DHT22;44930;52.878;6.168;2024-01-30T03:48:29;6.40;99.90
59148;DHT22;44930;52.878;6.168;2024-01-30T03:55:47;6.40;99.90
59148;DHT22;44930;52.878;6.168;2024-01-30T03:58:13;6.50;99.90
59148;DHT22;44930;52.878;6.168;2024-01-30T04:00:38;6.60;99.90
59148;DHT22;44930;52.878;6.168;2024-01-30T04:03:04;6.50;99.90
59148;DHT22;44930;52.878;6.168;2024-01-30T04:05:30;6.60;99.90
59148;DHT22;44930;52.878;6.168;2024-01-30T04:07:56;6.60;99.90
59148;DHT22;44930;52.878;6.168;2024-01-30T04:15:14;6.70;99.90
59148;DHT22;44930;52.878;6.168;2024-01-30T04:17:40;6.60;99.90
59148;DHT22;44930;52.878;6.168;2024-01-30T04:22:32;6.70;99.90
59148;DHT22;44930;52.878;6.168;2024-01-30T04:24:57;6.70;99.90
59148;DHT22;44930;52.878;6.168;2024-01-30T04:27:23;6.80;99.90
59148;DHT22;44930;52.878;6.168;2024-01-30T04:29:49;6.80;99.90
59148;DHT22;44930;52.878;6.168;2024-01-30T04:39:33;6.90;99.90
59148;DHT22;44930;52.878;6.168;2024-01-30T04:41:58;6.90;99.90
59148;DHT22;44930;52.878;6.168;2024-01-30T04:44:25;7.00;99.90
59148;DHT22;44930;52.878;6.168;2024-01-30T04:46:50;6.90;99.90
59148;DHT22;44930;52.878;6.168;2024-01-30T04:49:16;7.00;99.90
59148;DHT22;44930;52.878;6.168;2024-01-30T04:51:41;7.00;99.90
59148;DHT22;44930;52.878;6.168;2024-01-30T04:54:08;7.10;99.90
59148;DHT22;44930;52.878;6.168;2024-01-30T04:56:33;7.00;99.90
59148;DHT22;44930;52.878;6.168;2024-01-30T04:59:02;7.10;99.90
59148;DHT22;44930;52.878;6.168;2024-01-30T05:03:54;7.10;99.90
59148;DHT22;44930;52.878;6.168;2024-01-30T05:06:26;7.30;99.90
59148;DHT22;44930;52.878;6.168;2024-01-30T05:08:52;7.00;99.90
59148;DHT22;44930;52.878;6.168;2024-01-30T05:13:43;7.10;99.90
59148;DHT22;44930;52.878;6.168;2024-01-30T05:16:09;7.10;99.90
59148;DHT22;44930;52.878;6.168;2024-01-30T05:18:35;7.20;99.90
59148;DHT22;44930;52.878;6.168;2024-01-30T05:21:02;7.00;99.90
59148;DHT22;44930;52.878;6.168;2024-01-30T05:23:27;7.10;99.90
59148;DHT22;44930;52.878;6.168;2024-01-30T05:25:53;7.20;99.90
59148;DHT22;44930;52.878;6.168;2024-01-30T05:28:18;7.10;99.90
59148;DHT22;44930;52.878;6.168;2024-01-30T05:30:44;7.20;99.90
59148;DHT22;44930;52.878;6.168;2024-01-30T05:33:10;6.90;99.90
59148;DHT22;44930;52.878;6.168;2024-01-30T05:40:30;7.30;99.90
59148;DHT22;44930;52.878;6.168;2024-01-30T05:42:56;7.20;99.90
59148;DHT22;44930;52.878;6.168;2024-01-30T05:45:23;7.10;99.90
59148;DHT22;44930;52.878;6.168;2024-01-30T05:47:49;7.20;99.90
59148;DHT22;44930;52.878;6.168;2024-01-30T05:50:15;7.10;99.90
59148;DHT22;44930;52.878;6.168;2024-01-30T05:52:40;7.10;99.90
59148;DHT22;44930;52.878;6.168;2024-01-30T05:55:06;7.00;99.90
59148;DHT22;44930;52.878;6.168;2024-01-30T05:57:32;7.10;99.90
59148;DHT22;44930;52.878;6.168;2024-01-30T05:59:58;7.10;99.90
59148;DHT22;44930;52.878;6.168;2024-01-30T06:02:23;7.20;99.90
59148;DHT22;44930;52.878;6.168;2024-01-30T06:04:49;7.10;99.90
59148;DHT22;44930;52.878;6.168;2024-01-30T06:12:07;7.10;99.90
59148;DHT22;44930;52.878;6.168;2024-01-30T06:14:32;7.20;99.90
59148;DHT22;44930;52.878;6.168;2024-01-30T06:16:59;7.20;99.90
59148;DHT22;44930;52.878;6.168;2024-01-30T06:21:51;7.20;99.90
59148;DHT22;44930;52.878;6.168;2024-01-30T06:29:08;7.30;99.90
59148;DHT22;44930;52.878;6.168;2024-01-30T06:34:06;7.30;99.90
59148;DHT22;44930;52.878;6.168;2024-01-30T06:36:31;7.30;99.90
59148;DHT22;44930;52.878;6.168;2024-01-30T06:38:57;7.30;99.90
59148;DHT22;44930;52.878;6.168;2024-01-30T06:41:22;7.40;99.90
59148;DHT22;44930;52.878;6.168;2024-01-30T06:46:14;7.40;99.90
59148;DHT22;44930;52.878;6.168;2024-01-30T06:48:39;7.60;99.90
59148;DHT22;44930;52.878;6.168;2024-01-30T06:51:06;7.50;99.90
59148;DHT22;44930;52.878;6.168;2024-01-30T06:55:57;7.40;99.90
59148;DHT22;44930;52.878;6.168;2024-01-30T07:03:15;7.40;99.90
59148;DHT22;44930;52.878;6.168;2024-01-30T07:05:41;7.40;99.90
59148;DHT22;44930;52.878;6.168;2024-01-30T07:08:06;7.30;99.90
59148;DHT22;44930;52.878;6.168;2024-01-30T07:10:32;7.50;99.90
59148;DHT22;44930;52.878;6.168;2024-01-30T07:22:45;7.30;99.90
59148;DHT22;44930;52.878;6.168;2024-01-30T07:25:11;7.30;99.90
59148;DHT22;44930;52.878;6.168;2024-01-30T07:27:36;7.40;99.90
59148;DHT22;44930;52.878;6.168;2024-01-30T07:30:02;7.30;99.90
59148;DHT22;44930;52.878;6.168;2024-01-30T07:34:54;7.40;99.90
59148;DHT22;44930;52.878;6.168;2024-01-30T07:44:38;7.40;99.90
59148;DHT22;44930;52.878;6.168;2024-01-30T07:47:05;7.90;99.90
59148;DHT22;44930;52.878;6.168;2024-01-30T07:52:00;7.30;99.90
59148;DHT22;44930;52.878;6.168;2024-01-30T07:54:25;7.50;99.90
59148;DHT22;44930;52.878;6.168;2024-01-30T07:56:51;7.50;99.90
59148;DHT22;44930;52.878;6.168;2024-01-30T07:59:16;7.50;99.90
59148;DHT22;44930;52.878;6.168;2024-01-30T08:06:34;7.50;99.90
59148;DHT22;44930;52.878;6.168;2024-01-30T08:09:00;7.50;99.90
59148;DHT22;44930;52.878;6.168;2024-01-30T08:11:25;7.60;99.90
59148;DHT22;44930;52.878;6.168;2024-01-30T08:13:52;7.50;99.90
59148;DHT22;44930;52.878;6.168;2024-01-30T08:18:44;7.40;99.90
59148;DHT22;44930;52.878;6.168;2024-01-30T08:23:38;7.50;99.90
59148;DHT22;44930;52.878;6.168;2024-01-30T08:26:04;7.50;99.90
59148;DHT22;44930;52.878;6.168;2024-01-30T08:28:29;7.60;99.90
59148;DHT22;44930;52.878;6.168;2024-01-30T08:33:21;7.70;99.90
59148;DHT22;44930;52.878;6.168;2024-01-30T08:38:13;7.60;99.90
59148;DHT22;44930;52.878;6.168;2024-01-30T08:43:04;7.60;99.90
59148;DHT22;44930;52.878;6.168;2024-01-30T08:45:30;7.60;99.90
59148;DHT22;44930;52.878;6.168;2024-01-30T08:47:56;7.60;99.90
59148;DHT22;44930;52.878;6.168;2024-01-30T08:50:22;7.70;99.90
59148;DHT22;44930;52.878;6.168;2024-01-30T08:52:47;7.80;99.90
59148;DHT22;44930;52.878;6.168;2024-01-30T08:55:13;7.90;99.90
59148;DHT22;44930;52.878;6.168;2024-01-30T08:57:39;7.90;99.90
59148;DHT22;44930;52.878;6.168;2024-01-30T09:00:05;7.90;99.90
59148;DHT22;44930;52.878;6.168;2024-01-30T09:02:32;8.00;99.90
59148;DHT22;44930;52.878;6.168;2024-01-30T09:09:50;8.20;99.90
59148;DHT22;44930;52.878;6.168;2024-01-30T09:12:16;8.30;99.90
59148;DHT22;44930;52.878;6.168;2024-01-30T09:14:41;8.40;99.90
59148;DHT22;44930;52.878;6.168;2024-01-30T09:19:33;8.40;99.90
59148;DHT22;44930;52.878;6.168;2024-01-30T09:21:59;8.40;99.90
59148;DHT22;44930;52.878;6.168;2024-01-30T09:24:26;8.50;99.90
59148;DHT22;44930;52.878;6.168;2024-01-30T09:26:51;8.40;99.90
59148;DHT22;44930;52.878;6.168;2024-01-30T09:29:17;8.60;99.90
59148;DHT22;44930;52.878;6.168;2024-01-30T09:31:44;8.60;99.90
59148;DHT22;44930;52.878;6.168;2024-01-30T09:34:10;8.60;99.90
59148;DHT22;44930;52.878;6.168;2024-01-30T09:39:02;8.80;99.90
59148;DHT22;44930;52.878;6.168;2024-01-30T09:43:57;8.90;99.90
59148;DHT22;44930;52.878;6.168;2024-01-30T09:46:26;9.20;99.90
59148;DHT22;44930;52.878;6.168;2024-01-30T09:48:55;9.10;99.90
59148;DHT22;44930;52.878;6.168;2024-01-30T09:56:16;9.20;99.90
59148;DHT22;44930;52.878;6.168;2024-01-30T10:03:34;9.50;99.90
59148;DHT22;44930;52.878;6.168;2024-01-30T10:06:01;9.30;99.90
59148;DHT22;44930;52.878;6.168;2024-01-30T10:08:26;9.60;99.90
59148;DHT22;44930;52.878;6.168;2024-01-30T10:10:52;9.60;99.90
59148;DHT22;44930;52.878;6.168;2024-01-30T10:13:18;9.60;99.90
59148;DHT22;44930;52.878;6.168;2024-01-30T10:15:44;9.70;99.90
59148;DHT22;44930;52.878;6.168;2024-01-30T10:18:10;9.80;99.90
59148;DHT22;44930;52.878;6.168;2024-01-30T10:20:36;9.70;99.90
59148;DHT22;44930;52.878;6.168;2024-01-30T10:27:55;10.00;99.90
59148;DHT22;44930;52.878;6.168;2024-01-30T10:30:22;10.20;99.90
59148;DHT22;44930;52.878;6.168;2024-01-30T10:32:48;10.30;99.90
59148;DHT22;44930;52.878;6.168;2024-01-30T10:35:14;10.20;99.90
59148;DHT22;44930;52.878;6.168;2024-01-30T10:40:06;10.30;99.90
59148;DHT22;44930;52.878;6.168;2024-01-30T10:47:54;10.30;99.90
59148;DHT22;44930;52.878;6.168;2024-01-30T10:52:49;10.40;99.90
59148;DHT22;44930;52.878;6.168;2024-01-30T10:55:16;10.50;99.90
59148;DHT22;44930;52.878;6.168;2024-01-30T10:57:43;10.60;99.90
59148;DHT22;44930;52.878;6.168;2024-01-30T11:00:13;10.50;99.90
59148;DHT22;44930;52.878;6.168;2024-01-30T11:02:43;10.50;99.90
59148;DHT22;44930;52.878;6.168;2024-01-30T11:05:09;10.60;99.90
59148;DHT22;44930;52.878;6.168;2024-01-30T11:07:35;10.50;99.90
59148;DHT22;44930;52.878;6.168;2024-01-30T11:10:03;10.40;99.90
59148;DHT22;44930;52.878;6.168;2024-01-30T11:12:33;10.80;99.90
59148;DHT22;44930;52.878;6.168;2024-01-30T11:20:30;11.00;99.90
59148;DHT22;44930;52.878;6.168;2024-01-30T11:22:57;10.60;99.90
59148;DHT22;44930;52.878;6.168;2024-01-30T11:33:28;10.10;99.90
59148;DHT22;44930;52.878;6.168;2024-01-30T11:35:57;10.50;99.90
59148;DHT22;44930;52.878;6.168;2024-01-30T11:48:12;10.00;99.90
59148;DHT22;44930;52.878;6.168;2024-01-30T11:50:38;10.10;99.90
59148;DHT22;44930;52.878;6.168;2024-01-30T11:55:31;10.00;99.90
59148;DHT22;44930;52.878;6.168;2024-01-30T11:57:57;10.10;99.90
59148;DHT22;44930;52.878;6.168;2024-01-30T12:00:23;9.90;99.90
59148;DHT22;44930;52.878;6.168;2024-01-30T12:02:50;9.90;99.90
59148;DHT22;44930;52.878;6.168;2024-01-30T12:10:13;9.80;99.90
59148;DHT22;44930;52.878;6.168;2024-01-30T12:12:40;10.30;99.90
59148;DHT22;44930;52.878;6.168;2024-01-30T12:17:33;10.20;99.90
59148;DHT22;44930;52.878;6.168;2024-01-30T12:20:06;10.40;99.90
59148;DHT22;44930;52.878;6.168;2024-01-30T12:27:39;10.30;99.90
59148;DHT22;44930;52.878;6.168;2024-01-30T12:30:08;10.40;99.90
59148;DHT22;44930;52.878;6.168;2024-01-30T12:32:35;10.20;99.90
59148;DHT22;44930;52.878;6.168;2024-01-30T12:35:02;10.10;99.90
59148;DHT22;44930;52.878;6.168;2024-01-30T12:37:28;10.20;99.90
59148;DHT22;44930;52.878;6.168;2024-01-30T12:39:55;10.00;99.90
59148;DHT22;44930;52.878;6.168;2024-01-30T12:42:20;10.00;99.90
59148;DHT22;44930;52.878;6.168;2024-01-30T12:44:48;10.00;99.90
59148;DHT22;44930;52.878;6.168;2024-01-30T12:47:14;9.90;99.90
59148;DHT22;44930;52.878;6.168;2024-01-30T12:49:42;9.80;99.90
59148;DHT22;44930;52.878;6.168;2024-01-30T12:59:26;9.80;99.90
59148;DHT22;44930;52.878;6.168;2024-01-30T13:01:52;9.70;99.90
59148;DHT22;44930;52.878;6.168;2024-01-30T13:04:17;10.00;99.90
59148;DHT22;44930;52.878;6.168;2024-01-30T13:09:09;10.00;99.90
59148;DHT22;44930;52.878;6.168;2024-01-30T13:11:34;10.00;99.90
59148;DHT22;44930;52.878;6.168;2024-01-30T13:14:01;10.00;99.90
59148;DHT22;44930;52.878;6.168;2024-01-30T13:16:26;9.90;99.90
59148;DHT22;44930;52.878;6.168;2024-01-30T13:18:52;10.00;99.90
59148;DHT22;44930;52.878;6.168;2024-01-30T13:21:19;10.00;99.90
59148;DHT22;44930;52.878;6.168;2024-01-30T13:23:45;10.10;99.90
59148;DHT22;44930;52.878;6.168;2024-01-30T13:28:37;9.90;99.90
59148;DHT22;44930;52.878;6.168;2024-01-30T13:31:03;10.00;99.90
59148;DHT22;44930;52.878;6.168;2024-01-30T13:33:28;9.90;99.90
59148;DHT22;44930;52.878;6.168;2024-01-30T13:35:54;9.80;99.90
59148;DHT22;44930;52.878;6.168;2024-01-30T13:38:20;9.90;99.90
59148;DHT22;44930;52.878;6.168;2024-01-30T13:40:45;9.90;99.90
59148;DHT22;44930;52.878;6.168;2024-01-30T13:43:12;10.10;99.90
59148;DHT22;44930;52.878;6.168;2024-01-30T13:48:04;9.80;99.90
59148;DHT22;44930;52.878;6.168;2024-01-30T13:57:47;9.70;99.90
59148;DHT22;44930;52.878;6.168;2024-01-30T14:00:13;9.60;99.90
59148;DHT22;44930;52.878;6.168;2024-01-30T14:02:41;9.60;99.90
59148;DHT22;44930;52.878;6.168;2024-01-30T14:05:07;9.60;99.90
59148;DHT22;44930;52.878;6.168;2024-01-30T14:07:35;9.50;99.90
59148;DHT22;44930;52.878;6.168;2024-01-30T14:10:00;9.50;99.90
59148;DHT22;44930;52.878;6.168;2024-01-30T14:31:54;9.30;99.90
59148;DHT22;44930;52.878;6.168;2024-01-30T14:34:21;9.30;99.90
59148;DHT22;44930;52.878;6.168;2024-01-30T14:36:46;9.20;99.90
59148;DHT22;44930;52.878;6.168;2024-01-30T14:39:12;9.10;99.90
59148;DHT22;44930;52.878;6.168;2024-01-30T14:41:38;9.10;99.90
59148;DHT22;44930;52.878;6.168;2024-01-30T14:44:03;9.10;99.90
59148;DHT22;44930;52.878;6.168;2024-01-30T14:46:30;9.00;99.90
59148;DHT22;44930;52.878;6.168;2024-01-30T14:48:56;9.00;99.90
59148;DHT22;44930;52.878;6.168;2024-01-30T14:51:23;9.10;99.90
59148;DHT22;44930;52.878;6.168;2024-01-30T14:53:48;9.00;99.90
59148;DHT22;44930;52.878;6.168;2024-01-30T14:56:14;8.90;99.90
59148;DHT22;44930;52.878;6.168;2024-01-30T15:06:00;8.90;99.90
59148;DHT22;44930;52.878;6.168;2024-01-30T15:08:26;8.90;99.90
59148;DHT22;44930;52.878;6.168;2024-01-30T15:10:51;8.90;99.90
59148;DHT22;44930;52.878;6.168;2024-01-30T15:30:20;8.80;99.90
59148;DHT22;44930;52.878;6.168;2024-01-30T15:35:12;8.80;99.90
59148;DHT22;44930;52.878;6.168;2024-01-30T15:37:38;8.70;99.90
59148;DHT22;44930;52.878;6.168;2024-01-30T15:40:04;8.80;99.90
59148;DHT22;44930;52.878;6.168;2024-01-30T15:44:58;8.70;99.90
59148;DHT22;44930;52.878;6.168;2024-01-30T15:47:24;8.80;99.90
59148;DHT22;44930;52.878;6.168;2024-01-30T15:49:50;8.50;99.90
59148;DHT22;44930;52.878;6.168;2024-01-30T15:52:16;8.60;99.90
59148;DHT22;44930;52.878;6.168;2024-01-30T15:57:12;8.50;99.90
59148;DHT22;44930;52.878;6.168;2024-01-30T16:02:04;8.60;99.90
59148;DHT22;44930;52.878;6.168;2024-01-30T16:04:30;8.70;99.90
59148;DHT22;44930;52.878;6.168;2024-01-30T16:06:56;8.70;99.90
59148;DHT22;44930;52.878;6.168;2024-01-30T16:09:23;8.60;99.90
59148;DHT22;44930;52.878;6.168;2024-01-30T16:11:49;8.50;99.90
59148;DHT22;44930;52.878;6.168;2024-01-30T16:16:41;8.60;99.90
59148;DHT22;44930;52.878;6.168;2024-01-30T16:19:07;8.80;99.90
59148;DHT22;44930;52.878;6.168;2024-01-30T16:21:32;8.70;99.90
59148;DHT22;44930;52.878;6.168;2024-01-30T16:31:16;8.60;99.90
59148;DHT22;44930;52.878;6.168;2024-01-30T16:33:46;8.60;99.90
59148;DHT22;44930;52.878;6.168;2024-01-30T16:38:39;8.40;99.90
59148;DHT22;44930;52.878;6.168;2024-01-30T16:48:24;8.40;99.90
59148;DHT22;44930;52.878;6.168;2024-01-30T16:58:08;8.20;99.90
59148;DHT22;44930;52.878;6.168;2024-01-30T17:00:35;8.40;99.90
59148;DHT22;44930;52.878;6.168;2024-01-30T17:03:00;8.30;99.90
59148;DHT22;44930;52.878;6.168;2024-01-30T17:05:26;8.20;99.90
59148;DHT22;44930;52.878;6.168;2024-01-30T17:07:53;8.10;99.90
59148;DHT22;44930;52.878;6.168;2024-01-30T17:10:19;8.30;99.90
59148;DHT22;44930;52.878;6.168;2024-01-30T17:15:11;8.00;99.90
59148;DHT22;44930;52.878;6.168;2024-01-30T17:22:29;8.10;99.90
59148;DHT22;44930;52.878;6.168;2024-01-30T17:24:55;8.10;99.90
59148;DHT22;44930;52.878;6.168;2024-01-30T17:27:22;8.10;99.90
59148;DHT22;44930;52.878;6.168;2024-01-30T17:29:47;8.00;99.90
59148;DHT22;44930;52.878;6.168;2024-01-30T17:41:57;8.00;99.90
59148;DHT22;44930;52.878;6.168;2024-01-30T17:44:23;7.90;99.90
59148;DHT22;44930;52.878;6.168;2024-01-30T17:46:50;7.80;99.90
59148;DHT22;44930;52.878;6.168;2024-01-30T17:49:16;8.00;99.90
59148;DHT22;44930;52.878;6.168;2024-01-30T17:51:42;7.80;99.90
59148;DHT22;44930;52.878;6.168;2024-01-30T17:54:08;7.80;99.90
59148;DHT22;44930;52.878;6.168;2024-01-30T17:56:33;8.00;99.90
59148;DHT22;44930;52.878;6.168;2024-01-30T17:58:59;8.00;99.90
59148;DHT22;44930;52.878;6.168;2024-01-30T18:01:25;7.90;99.90
59148;DHT22;44930;52.878;6.168;2024-01-30T18:03:51;7.80;99.90
59148;DHT22;44930;52.878;6.168;2024-01-30T18:18:31;7.80;99.90
59148;DHT22;44930;52.878;6.168;2024-01-30T18:20:56;7.70;99.90
59148;DHT22;44930;52.878;6.168;2024-01-30T18:25:48;7.80;99.90
59148;DHT22;44930;52.878;6.168;2024-01-30T18:28:14;7.70;99.90
59148;DHT22;44930;52.878;6.168;2024-01-30T18:30:39;7.70;99.90
59148;DHT22;44930;52.878;6.168;2024-01-30T18:33:05;7.70;99.90
59148;DHT22;44930;52.878;6.168;2024-01-30T18:37:59;7.70;99.90
59148;DHT22;44930;52.878;6.168;2024-01-30T18:40:24;7.60;99.90
59148;DHT22;44930;52.878;6.168;2024-01-30T18:42:50;7.60;99.90
59148;DHT22;44930;52.878;6.168;2024-01-30T18:45:16;7.60;99.90
59148;DHT22;44930;52.878;6.168;2024-01-30T18:47:42;7.40;99.90
59148;DHT22;44930;52.878;6.168;2024-01-30T18:50:07;7.50;99.90
59148;DHT22;44930;52.878;6.168;2024-01-30T18:52:33;7.50;99.90
59148;DHT22;44930;52.878;6.168;2024-01-30T18:59:51;7.60;99.90
59148;DHT22;44930;52.878;6.168;2024-01-30T19:02:17;7.50;99.90
59148;DHT22;44930;52.878;6.168;2024-01-30T19:09:35;7.30;99.90
59148;DHT22;44930;52.878;6.168;2024-01-30T19:12:03;7.50;99.90
59148;DHT22;44930;52.878;6.168;2024-01-30T19:14:28;7.40;99.90
59148;DHT22;44930;52.878;6.168;2024-01-30T19:16:56;7.30;99.90
59148;DHT22;44930;52.878;6.168;2024-01-30T19:19:21;7.30;99.90
59148;DHT22;44930;52.878;6.168;2024-01-30T19:21:47;7.50;99.90
59148;DHT22;44930;52.878;6.168;2024-01-30T19:24:13;7.30;99.90
59148;DHT22;44930;52.878;6.168;2024-01-30T19:29:05;7.30;99.90
59148;DHT22;44930;52.878;6.168;2024-01-30T19:33:57;7.30;99.90
59148;DHT22;44930;52.878;6.168;2024-01-30T19:41:14;7.30;99.90
59148;DHT22;44930;52.878;6.168;2024-01-30T19:43:40;7.30;99.90
59148;DHT22;44930;52.878;6.168;2024-01-30T19:46:05;7.30;99.90
59148;DHT22;44930;52.878;6.168;2024-01-30T19:58:18;7.20;99.90
59148;DHT22;44930;52.878;6.168;2024-01-30T20:00:43;7.10;99.90
59148;DHT22;44930;52.878;6.168;2024-01-30T20:03:09;7.20;99.90
59148;DHT22;44930;52.878;6.168;2024-01-30T20:05:35;7.10;99.90
59148;DHT22;44930;52.878;6.168;2024-01-30T20:08:00;7.10;99.90
59148;DHT22;44930;52.878;6.168;2024-01-30T20:10:27;7.10;99.90
59148;DHT22;44930;52.878;6.168;2024-01-30T20:12:53;7.10;99.90
59148;DHT22;44930;52.878;6.168;2024-01-30T20:15:19;7.10;99.90
59148;DHT22;44930;52.878;6.168;2024-01-30T20:17:45;7.20;99.90
59148;DHT22;44930;52.878;6.168;2024-01-30T20:25:05;6.90;99.90
59148;DHT22;44930;52.878;6.168;2024-01-30T20:29:58;6.90;99.90
59148;DHT22;44930;52.878;6.168;2024-01-30T20:32:24;6.90;99.90
59148;DHT22;44930;52.878;6.168;2024-01-30T20:34:50;6.80;99.90
59148;DHT22;44930;52.878;6.168;2024-01-30T20:37:17;7.00;99.90
59148;DHT22;44930;52.878;6.168;2024-01-30T20:39:43;6.80;99.90
59148;DHT22;44930;52.878;6.168;2024-01-30T20:44:36;6.90;99.90
59148;DHT22;44930;52.878;6.168;2024-01-30T20:47:02;6.90;99.90
59148;DHT22;44930;52.878;6.168;2024-01-30T20:49:28;6.80;99.90
59148;DHT22;44930;52.878;6.168;2024-01-30T20:51:53;6.80;99.90
59148;DHT22;44930;52.878;6.168;2024-01-30T20:54:19;6.40;99.90
59148;DHT22;44930;52.878;6.168;2024-01-30T20:56:44;6.60;99.90
59148;DHT22;44930;52.878;6.168;2024-01-30T21:06:28;6.60;99.90
59148;DHT22;44930;52.878;6.168;2024-01-30T21:08:53;6.60;99.90
59148;DHT22;44930;52.878;6.168;2024-01-30T21:11:19;6.60;99.90
59148;DHT22;44930;52.878;6.168;2024-01-30T21:13:46;6.50;99.90
59148;DHT22;44930;52.878;6.168;2024-01-30T21:18:38;6.50;99.90
59148;DHT22;44930;52.878;6.168;2024-01-30T21:21:08;6.60;99.90
59148;DHT22;44930;52.878;6.168;2024-01-30T21:23:33;6.60;99.90
59148;DHT22;44930;52.878;6.168;2024-01-30T21:25:59;6.50;99.90
59148;DHT22;44930;52.878;6.168;2024-01-30T21:28:25;6.40;99.90
59148;DHT22;44930;52.878;6.168;2024-01-30T21:30:50;6.40;99.90
59148;DHT22;44930;52.878;6.168;2024-01-30T21:33:16;6.40;99.90
59148;DHT22;44930;52.878;6.168;2024-01-30T21:35:41;6.50;99.90
59148;DHT22;44930;52.878;6.168;2024-01-30T21:38:07;6.50;99.90
59148;DHT22;44930;52.878;6.168;2024-01-30T21:45:26;6.30;99.90
59148;DHT22;44930;52.878;6.168;2024-01-30T21:47:51;6.20;99.90
59148;DHT22;44930;52.878;6.168;2024-01-30T21:50:20;6.00;99.90
59148;DHT22;44930;52.878;6.168;2024-01-30T21:52:46;6.10;99.90
59148;DHT22;44930;52.878;6.168;2024-01-30T22:02:32;6.00;99.90
59148;DHT22;44930;52.878;6.168;2024-01-30T22:04:58;6.00;99.90
59148;DHT22;44930;52.878;6.168;2024-01-30T22:07:23;6.40;99.90
59148;DHT22;44930;52.878;6.168;2024-01-30T22:09:49;6.10;99.90
59148;DHT22;44930;52.878;6.168;2024-01-30T22:12:15;6.20;99.90
59148;DHT22;44930;52.878;6.168;2024-01-30T22:14:40;6.20;99.90
59148;DHT22;44930;52.878;6.168;2024-01-30T22:24:24;6.20;99.90
59148;DHT22;44930;52.878;6.168;2024-01-30T22:26:49;6.10;99.90
59148;DHT22;44930;52.878;6.168;2024-01-30T22:29:15;6.20;99.90
59148;DHT22;44930;52.878;6.168;2024-01-30T22:31:41;6.00;99.90
59148;DHT22;44930;52.878;6.168;2024-01-30T22:34:06;6.10;99.90
59148;DHT22;44930;52.878;6.168;2024-01-30T22:36:32;6.00;99.90
59148;DHT22;44930;52.878;6.168;2024-01-30T22:39:01;6.10;99.90
59148;DHT22;44930;52.878;6.168;2024-01-30T22:41:27;6.20;99.90
59148;DHT22;44930;52.878;6.168;2024-01-30T22:43:53;6.10;99.90
59148;DHT22;44930;52.878;6.168;2024-01-30T22:46:19;6.00;99.90
59148;DHT22;44930;52.878;6.168;2024-01-30T22:48:44;6.10;99.90
59148;DHT22;44930;52.878;6.168;2024-01-30T22:51:10;6.30;99.90
59148;DHT22;44930;52.878;6.168;2024-01-30T22:56:02;5.90;99.90